ESMD weather

CLOSED Hässleholm Vankivar Airport
Hässleholm, Skåne län, Sweden

Public forecast

Using degrees Celsius for public forecast. Weather courtesy of forecast.io.

Closest aviation weather report (METAR) to Hässleholm Vankivar Airport

Closest report is Ljungbyhed Airport, 19.0 nm (35.2 km) WSW. Retrieved 2019/11/20 08:20 UTC (0 seconds ago):

ESTL 200820Z 13002KT 9999 OVC014 07/06 Q1021

Closest aviation forecast (TAF) to Hässleholm Vankivar Airport

Forecast is more than 12 hours old.

Closest forecast is Ljungbyhed Airport, 19.0 nm (35.2 km) WSW. Retrieved 2016/03/01 09:33 UTC (4 years ago):

TAF ESTL 010830Z 0109/0124 14004KT 9999 SCT025